createdAt,value
2019-01-24T00:00:30.636Z,60.61
2019-01-24T00:01:11.229Z,60.41
2019-01-24T00:01:51.834Z,60.54
2019-01-24T00:02:32.478Z,60.83
2019-01-24T00:03:13.084Z,60.83
2019-01-24T00:03:53.696Z,60.73
2019-01-24T00:04:34.292Z,60.51
2019-01-24T00:05:14.902Z,60.61
2019-01-24T00:05:55.585Z,60.61
2019-01-24T00:06:36.206Z,60.54
2019-01-24T00:07:16.824Z,60.41
2019-01-24T00:07:57.444Z,60.73
2019-01-24T00:08:38.050Z,60.64
2019-01-24T00:09:18.662Z,60.22
2019-01-24T00:09:59.304Z,60.41
2019-01-24T00:10:39.964Z,60.44
2019-01-24T00:11:20.576Z,60.41
2019-01-24T00:12:01.183Z,60.73
2019-01-24T00:12:42.001Z,60.7
2019-01-24T00:13:22.535Z,60.54
2019-01-24T00:14:03.146Z,60.7
2019-01-24T00:14:43.786Z,60.8
2019-01-24T00:15:24.420Z,60.8
2019-01-24T00:16:05.051Z,60.83
2019-01-24T00:16:45.748Z,60.83
2019-01-24T00:17:26.354Z,60.83
2019-01-24T00:18:07.226Z,60.51
2019-01-24T00:18:47.890Z,60.7
2019-01-24T00:19:28.496Z,60.64
2019-01-24T00:20:09.141Z,60.7
2019-01-24T00:20:49.752Z,60.8
2019-01-24T00:21:30.364Z,60.61
2019-01-24T00:22:10.966Z,60.7
2019-01-24T00:22:51.576Z,60.83
2019-01-24T00:23:32.186Z,60.64
2019-01-24T00:24:12.810Z,60.8
2019-01-24T00:24:53.440Z,60.61
2019-01-24T00:25:34.047Z,60.64
2019-01-24T00:26:14.724Z,60.7
2019-01-24T00:26:55.340Z,60.83
2019-01-24T00:27:35.955Z,61.21
2019-01-24T00:28:16.575Z,60.61
2019-01-24T00:28:57.184Z,60.7
2019-01-24T00:29:37.822Z,60.8
2019-01-24T00:30:18.449Z,60.89
2019-01-24T00:30:59.064Z,60.7
2019-01-24T00:31:39.674Z,60.61
2019-01-24T00:32:20.268Z,60.7
2019-01-24T00:33:00.888Z,60.93
2019-01-24T00:33:41.499Z,60.7
2019-01-24T00:34:23.153Z,60.7
2019-01-24T00:35:02.714Z,60.61
2019-01-24T00:35:43.328Z,60.7
2019-01-24T00:36:23.946Z,60.7
2019-01-24T00:37:04.556Z,60.61
2019-01-24T00:37:45.212Z,60.8
2019-01-24T00:38:25.830Z,60.7
2019-01-24T00:39:06.432Z,60.7
2019-01-24T00:39:47.042Z,60.89
2019-01-24T00:40:27.678Z,60.73
2019-01-24T00:41:08.290Z,60.61
2019-01-24T00:41:48.891Z,60.8
2019-01-24T00:42:29.530Z,60.7
2019-01-24T00:43:10.122Z,60.7
2019-01-24T00:43:50.742Z,60.61
2019-01-24T00:44:31.346Z,60.7
2019-01-24T00:45:11.958Z,60.83
2019-01-24T00:45:52.574Z,60.89
2019-01-24T00:46:33.194Z,60.7
2019-01-24T00:47:13.796Z,60.64
2019-01-24T00:47:54.425Z,60.61
2019-01-24T00:48:35.020Z,60.61
2019-01-24T00:49:15.630Z,60.61
2019-01-24T00:49:56.238Z,60.8
2019-01-24T00:50:36.856Z,60.89
2019-01-24T00:51:17.452Z,60.64
2019-01-24T00:51:58.066Z,60.89
2019-01-24T00:52:38.674Z,60.8
2019-01-24T00:53:19.284Z,60.8
2019-01-24T00:53:59.904Z,60.73
2019-01-24T00:54:40.519Z,60.8
2019-01-24T00:55:21.130Z,60.8
2019-01-24T00:56:01.735Z,60.73
2019-01-24T00:56:42.348Z,60.61
2019-01-24T00:57:22.938Z,60.41
2019-01-24T00:58:03.532Z,60.61
2019-01-24T00:58:44.214Z,60.7
2019-01-24T00:59:24.820Z,60.7
2019-01-24T01:00:05.420Z,60.51
2019-01-24T01:00:46.029Z,60.41
2019-01-24T01:01:26.638Z,60.7
2019-01-24T01:02:07.234Z,60.41
2019-01-24T01:02:47.845Z,60.51
2019-01-24T01:03:28.452Z,60.41
2019-01-24T01:04:09.062Z,60.51
2019-01-24T01:04:49.667Z,60.8
2019-01-24T01:05:30.296Z,60.7
2019-01-24T01:06:10.899Z,60.7
2019-01-24T01:06:51.514Z,60.51
2019-01-24T01:07:32.144Z,60.41
2019-01-24T01:08:12.786Z,60.41
2019-01-24T01:08:53.407Z,60.41
2019-01-24T01:09:34.008Z,60.61
2019-01-24T01:10:14.607Z,60.7
2019-01-24T01:10:55.206Z,60.8
2019-01-24T01:11:35.819Z,60.73
2019-01-24T01:12:16.448Z,60.8
2019-01-24T01:12:57.071Z,60.41
2019-01-24T01:13:37.694Z,60.51
2019-01-24T01:14:18.309Z,60.7
2019-01-24T01:14:58.925Z,60.22
2019-01-24T01:15:39.540Z,60.61
2019-01-24T01:16:20.153Z,60.7
2019-01-24T01:17:00.754Z,60.8
2019-01-24T01:17:41.386Z,60.51
2019-01-24T01:18:21.988Z,60.41
2019-01-24T01:19:02.597Z,60.41
2019-01-24T01:19:43.208Z,60.61
2019-01-24T01:20:23.836Z,60.41
2019-01-24T01:21:04.448Z,60.41
2019-01-24T01:21:45.050Z,60.61
2019-01-24T01:22:25.652Z,60.7
2019-01-24T01:23:06.272Z,60.41
2019-01-24T01:23:46.904Z,60.44
2019-01-24T01:24:27.522Z,60.7
2019-01-24T01:25:08.128Z,60.7
2019-01-24T01:25:48.764Z,60.7
2019-01-24T01:26:29.364Z,60.41
2019-01-24T01:27:09.976Z,60.61
2019-01-24T01:27:50.582Z,60.51
2019-01-24T01:28:31.194Z,60.41
2019-01-24T01:29:11.809Z,60.41
2019-01-24T01:29:52.433Z,60.7
2019-01-24T01:30:33.040Z,60.7
2019-01-24T01:31:13.654Z,60.41
2019-01-24T01:31:54.259Z,60.22
2019-01-24T01:32:34.868Z,60.7
2019-01-24T01:33:15.578Z,60.41
2019-01-24T01:33:56.174Z,60.61
2019-01-24T01:34:36.781Z,60.61
2019-01-24T01:35:17.401Z,60.41
2019-01-24T01:35:58.004Z,60.32
2019-01-24T01:36:38.606Z,60.61
2019-01-24T01:37:19.218Z,60.7
2019-01-24T01:37:59.840Z,60.61
2019-01-24T01:38:40.476Z,60.61
2019-01-24T01:39:21.106Z,60.7
2019-01-24T01:40:01.753Z,60.61
2019-01-24T01:40:42.352Z,60.51
2019-01-24T01:41:22.967Z,60.51
2019-01-24T01:42:03.571Z,60.41
2019-01-24T01:42:44.195Z,60.61
2019-01-24T01:43:24.794Z,60.7
2019-01-24T01:44:05.398Z,60.41
2019-01-24T01:44:46.003Z,60.7
2019-01-24T01:45:26.614Z,60.51
2019-01-24T01:46:07.240Z,60.41
2019-01-24T01:46:47.880Z,60.51
2019-01-24T01:47:28.506Z,60.41
2019-01-24T01:48:09.122Z,60.51
2019-01-24T01:48:49.748Z,60.51
2019-01-24T01:49:30.372Z,60.41
2019-01-24T01:50:11.020Z,60.41
2019-01-24T01:50:51.647Z,60.41
2019-01-24T01:51:32.276Z,60.41
2019-01-24T01:52:12.914Z,60.44
2019-01-24T01:52:53.518Z,60.7
2019-01-24T01:53:34.116Z,60.41
2019-01-24T01:54:14.722Z,60.41
2019-01-24T01:54:55.324Z,60.8
2019-01-24T01:55:35.943Z,60.51
2019-01-24T01:56:16.551Z,60.8
2019-01-24T01:56:57.166Z,60.7
2019-01-24T01:57:37.772Z,60.7
2019-01-24T01:58:18.382Z,60.8
2019-01-24T01:58:58.988Z,60.7
2019-01-24T01:59:39.600Z,60.8
2019-01-24T02:00:20.231Z,60.7
2019-01-24T02:01:00.889Z,60.7
2019-01-24T02:01:41.494Z,60.8
2019-01-24T02:02:22.100Z,60.7
2019-01-24T02:03:02.736Z,60.8
2019-01-24T02:03:43.330Z,60.7
2019-01-24T02:04:23.950Z,60.61
2019-01-24T02:05:04.560Z,60.8
2019-01-24T02:05:45.185Z,60.8
2019-01-24T02:06:25.796Z,60.61
2019-01-24T02:07:06.403Z,60.89
2019-01-24T02:07:47.020Z,60.7
2019-01-24T02:08:27.624Z,60.7
2019-01-24T02:09:08.218Z,60.8
2019-01-24T02:09:48.868Z,60.61
2019-01-24T02:10:29.468Z,60.61
2019-01-24T02:11:10.081Z,60.51
2019-01-24T02:11:50.690Z,60.32
2019-01-24T02:12:31.324Z,60.51
2019-01-24T02:13:11.950Z,60.99
2019-01-24T02:13:52.573Z,60.61
2019-01-24T02:14:33.182Z,60.7
2019-01-24T02:15:13.826Z,60.7
2019-01-24T02:15:54.428Z,60.51
2019-01-24T02:16:35.057Z,60.51
2019-01-24T02:17:15.704Z,60.51
2019-01-24T02:17:56.327Z,60.89
2019-01-24T02:18:36.963Z,60.99
2019-01-24T02:19:17.577Z,60.7
2019-01-24T02:19:58.184Z,60.41
2019-01-24T02:20:38.792Z,60.8
2019-01-24T02:21:19.422Z,60.41
2019-01-24T02:22:00.032Z,60.7
2019-01-24T02:22:40.652Z,61.08
2019-01-24T02:23:21.279Z,60.32
2019-01-24T02:24:01.893Z,60.51
2019-01-24T02:24:42.520Z,60.51
2019-01-24T02:25:23.139Z,60.7
2019-01-24T02:26:03.742Z,60.32
2019-01-24T02:26:44.348Z,60.32
2019-01-24T02:27:24.958Z,60.99
2019-01-24T02:28:05.564Z,60.7
2019-01-24T02:28:46.184Z,60.99
2019-01-24T02:29:26.790Z,60.7
2019-01-24T02:30:07.403Z,60.51
2019-01-24T02:30:48.019Z,60.7
2019-01-24T02:31:28.627Z,60.41
2019-01-24T02:32:09.241Z,60.32
2019-01-24T02:32:49.875Z,60.99
2019-01-24T02:33:30.515Z,60.51
2019-01-24T02:34:11.159Z,60.8
2019-01-24T02:34:51.822Z,60.8
2019-01-24T02:35:32.433Z,60.7
2019-01-24T02:36:13.049Z,60.99
2019-01-24T02:36:53.675Z,60.32
2019-01-24T02:37:34.275Z,60.8
2019-01-24T02:38:14.881Z,60.99
2019-01-24T02:38:55.483Z,60.99
2019-01-24T02:39:36.091Z,60.99
2019-01-24T02:40:16.709Z,60.51
2019-01-24T02:40:57.325Z,60.41
2019-01-24T02:41:37.996Z,61.08
2019-01-24T02:42:18.589Z,60.99
2019-01-24T02:42:59.204Z,60.89
2019-01-24T02:43:39.825Z,60.99
2019-01-24T02:44:20.479Z,61.18
2019-01-24T02:45:01.107Z,60.99
2019-01-24T02:45:41.707Z,61.18
2019-01-24T02:46:22.314Z,61.18
2019-01-24T02:47:02.938Z,61.18
2019-01-24T02:47:45.145Z,60.89
2019-01-24T02:48:25.757Z,60.99
2019-01-24T02:49:06.435Z,60.99
2019-01-24T02:49:47.083Z,60.89
2019-01-24T02:50:27.749Z,60.99
2019-01-24T02:51:08.353Z,60.99
2019-01-24T02:51:48.998Z,60.89
2019-01-24T02:52:29.615Z,61.08
2019-01-24T02:53:10.262Z,60.7
2019-01-24T02:53:50.851Z,60.99
2019-01-24T02:54:31.459Z,60.41
2019-01-24T02:55:12.117Z,61.18
2019-01-24T02:55:52.755Z,61.18
2019-01-24T02:56:33.365Z,61.08
2019-01-24T02:57:14.017Z,60.99
2019-01-24T02:57:54.623Z,60.61
2019-01-24T02:58:35.235Z,61.18
2019-01-24T02:59:15.863Z,60.8
2019-01-24T02:59:56.527Z,60.89
2019-01-24T03:00:37.135Z,61.28
2019-01-24T03:01:17.743Z,60.8
2019-01-24T03:01:58.387Z,60.8
2019-01-24T03:02:38.987Z,60.61
2019-01-24T03:03:19.599Z,60.99
2019-01-24T03:04:00.213Z,60.61
2019-01-24T03:04:40.837Z,61.08
2019-01-24T03:05:21.463Z,60.8
2019-01-24T03:06:02.109Z,60.7
2019-01-24T03:06:42.729Z,60.99
2019-01-24T03:07:23.359Z,60.8
2019-01-24T03:08:04.009Z,61.08
2019-01-24T03:08:44.617Z,61.08
2019-01-24T03:09:25.275Z,60.51
2019-01-24T03:10:05.885Z,60.99
2019-01-24T03:10:46.523Z,60.61
2019-01-24T03:11:27.170Z,60.99
2019-01-24T03:12:07.785Z,60.8
2019-01-24T03:12:48.429Z,60.61
2019-01-24T03:13:29.055Z,60.89
2019-01-24T03:14:09.709Z,60.8
2019-01-24T03:14:50.343Z,60.7
2019-01-24T03:15:30.951Z,60.22
2019-01-24T03:16:11.661Z,60.41
2019-01-24T03:16:52.296Z,60.61
2019-01-24T03:17:32.906Z,60.41
2019-01-24T03:18:13.525Z,60.51
2019-01-24T03:18:54.141Z,60.41
2019-01-24T03:19:34.766Z,60.22
2019-01-24T03:20:15.381Z,60.41
2019-01-24T03:20:56.009Z,60.32
2019-01-24T03:21:36.657Z,60.51
2019-01-24T03:22:17.281Z,60.8
2019-01-24T03:22:57.893Z,60.7
2019-01-24T03:23:38.513Z,60.7
2019-01-24T03:24:19.149Z,60.13
2019-01-24T03:24:59.777Z,60.13
2019-01-24T03:25:40.427Z,60.13
2019-01-24T03:26:21.046Z,60.41
2019-01-24T03:27:01.635Z,60.22
2019-01-24T03:27:42.245Z,60.41
2019-01-24T03:28:22.861Z,60.22
2019-01-24T03:29:03.485Z,60.22
2019-01-24T03:29:44.092Z,60.61
2019-01-24T03:30:24.708Z,60.41
2019-01-24T03:31:05.314Z,60.22
2019-01-24T03:31:45.905Z,60.41
2019-01-24T03:32:26.544Z,60.22
2019-01-24T03:33:07.176Z,60.22
2019-01-24T03:33:47.801Z,60.22
2019-01-24T03:34:28.415Z,60.51
2019-01-24T03:35:09.046Z,60.22
2019-01-24T03:35:49.714Z,60.7
2019-01-24T03:36:30.351Z,60.61
2019-01-24T03:37:10.976Z,60.51
2019-01-24T03:37:51.573Z,60.13
2019-01-24T03:38:32.178Z,60.03
2019-01-24T03:39:12.810Z,60.51
2019-01-24T03:39:53.429Z,60.13
2019-01-24T03:40:34.044Z,60.41
2019-01-24T03:41:14.658Z,60.22
2019-01-24T03:41:55.251Z,60.22
2019-01-24T03:42:35.870Z,60.03
2019-01-24T03:43:16.491Z,60.41
2019-01-24T03:43:57.120Z,60.41
2019-01-24T03:44:37.729Z,60.41
2019-01-24T03:45:18.353Z,60.41
2019-01-24T03:45:58.960Z,60.32
2019-01-24T03:46:39.579Z,60.22
2019-01-24T03:47:20.197Z,60.22
2019-01-24T03:48:00.805Z,60.32
2019-01-24T03:48:41.446Z,60.03
2019-01-24T03:49:22.045Z,60.03
2019-01-24T03:50:02.653Z,60.22
2019-01-24T03:50:43.265Z,60.22
2019-01-24T03:51:23.917Z,60.51
2019-01-24T03:52:04.515Z,60.22
2019-01-24T03:52:45.127Z,60.41
2019-01-24T03:53:25.770Z,60.41
2019-01-24T03:54:06.406Z,60.32
2019-01-24T03:54:47.009Z,60.22
2019-01-24T03:55:27.635Z,60.32
2019-01-24T03:56:08.289Z,60.51
2019-01-24T03:56:48.908Z,60.32
2019-01-24T03:57:29.539Z,60.22
2019-01-24T03:58:10.176Z,60.41
2019-01-24T03:58:50.799Z,60.51
2019-01-24T03:59:31.437Z,60.32
2019-01-24T04:00:12.061Z,60.51
2019-01-24T04:00:52.675Z,60.51
2019-01-24T04:01:33.296Z,60.51
2019-01-24T04:02:13.898Z,60.22
2019-01-24T04:02:54.519Z,60.22
2019-01-24T04:03:35.159Z,60.22
2019-01-24T04:04:15.763Z,60.41
2019-01-24T04:04:56.401Z,60.41
2019-01-24T04:05:37.009Z,60.32
2019-01-24T04:06:17.615Z,60.22
2019-01-24T04:06:58.225Z,60.41
2019-01-24T04:07:38.863Z,60.41
2019-01-24T04:08:19.485Z,60.41
2019-01-24T04:09:00.135Z,60.32
2019-01-24T04:09:40.761Z,60.41
2019-01-24T04:10:21.395Z,60.22
2019-01-24T04:11:02.039Z,60.41
2019-01-24T04:11:42.635Z,60.41
2019-01-24T04:12:23.253Z,60.51
2019-01-24T04:13:03.861Z,60.51
2019-01-24T04:13:44.533Z,60.51
2019-01-24T04:14:25.151Z,60.32
2019-01-24T04:15:05.757Z,60.41
2019-01-24T04:15:46.411Z,60.32
2019-01-24T04:16:27.016Z,60.51
2019-01-24T04:17:07.643Z,60.51
2019-01-24T04:17:48.263Z,60.51
2019-01-24T04:18:28.911Z,60.41
2019-01-24T04:19:09.519Z,60.13
2019-01-24T04:19:50.125Z,60.7
2019-01-24T04:20:30.781Z,60.51
2019-01-24T04:21:11.375Z,60.61
2019-01-24T04:21:51.981Z,60.61
2019-01-24T04:22:32.590Z,60.51
2019-01-24T04:23:13.193Z,60.61
2019-01-24T04:23:53.803Z,60.7
2019-01-24T04:24:34.450Z,60.61
2019-01-24T04:25:15.053Z,60.51
2019-01-24T04:25:55.657Z,60.41
2019-01-24T04:26:36.271Z,60.41
2019-01-24T04:27:16.889Z,60.51
2019-01-24T04:27:57.557Z,60.7
2019-01-24T04:28:38.177Z,60.51
2019-01-24T04:29:18.793Z,60.41
2019-01-24T04:29:59.405Z,60.41
2019-01-24T04:30:40.009Z,60.51
2019-01-24T04:31:20.630Z,60.51
2019-01-24T04:32:01.249Z,60.22
2019-01-24T04:32:41.863Z,60.32
2019-01-24T04:33:22.587Z,60.51
2019-01-24T04:34:03.230Z,60.41
2019-01-24T04:34:43.888Z,60.51
2019-01-24T04:35:24.478Z,60.32
2019-01-24T04:36:05.087Z,60.41
2019-01-24T04:36:45.688Z,60.22
2019-01-24T04:37:26.287Z,60.51
2019-01-24T04:38:06.897Z,60.51
2019-01-24T04:38:47.500Z,60.51
2019-01-24T04:39:28.129Z,60.41
2019-01-24T04:40:08.757Z,60.22
2019-01-24T04:40:49.367Z,60.32
2019-01-24T04:41:29.975Z,60.51
2019-01-24T04:42:10.587Z,60.32
2019-01-24T04:42:51.226Z,60.32
2019-01-24T04:43:31.834Z,60.41
2019-01-24T04:44:12.469Z,60.22
2019-01-24T04:44:53.055Z,60.32
2019-01-24T04:45:33.691Z,60.32
2019-01-24T04:46:14.318Z,60.32
2019-01-24T04:46:54.897Z,60.51
2019-01-24T04:47:35.521Z,60.51
2019-01-24T04:48:16.139Z,60.32
2019-01-24T04:48:56.737Z,60.41
2019-01-24T04:49:37.366Z,60.41
2019-01-24T04:50:17.967Z,60.41
2019-01-24T04:50:58.587Z,60.41
2019-01-24T04:51:39.201Z,60.41
2019-01-24T04:52:19.828Z,60.32
2019-01-24T04:53:00.449Z,60.22
2019-01-24T04:53:41.053Z,60.41
2019-01-24T04:54:21.677Z,60.22
2019-01-24T04:55:02.286Z,60.51
2019-01-24T04:55:42.915Z,60.51
2019-01-24T04:56:23.535Z,60.22
2019-01-24T04:57:04.159Z,60.51
2019-01-24T04:57:44.843Z,60.41
2019-01-24T04:58:25.447Z,60.32
2019-01-24T04:59:06.072Z,60.41
2019-01-24T04:59:46.675Z,60.22
2019-01-24T05:00:27.303Z,60.32
2019-01-24T05:01:07.915Z,60.32
2019-01-24T05:01:48.599Z,60.32
2019-01-24T05:02:29.221Z,60.22
2019-01-24T05:03:09.827Z,60.32
2019-01-24T05:03:50.437Z,60.32
2019-01-24T05:04:31.063Z,60.32
2019-01-24T05:05:11.685Z,60.32
2019-01-24T05:05:52.316Z,60.51
2019-01-24T05:06:32.923Z,60.51
2019-01-24T05:07:13.545Z,60.51
2019-01-24T05:07:54.177Z,60.7
2019-01-24T05:08:34.791Z,60.41
2019-01-24T05:09:15.387Z,60.61
2019-01-24T05:09:55.999Z,60.51
2019-01-24T05:10:36.643Z,60.61
2019-01-24T05:11:17.247Z,60.7
2019-01-24T05:11:57.860Z,60.61
2019-01-24T05:12:38.461Z,60.41
2019-01-24T05:13:19.074Z,60.7
2019-01-24T05:13:59.697Z,60.61
2019-01-24T05:14:40.301Z,60.61
2019-01-24T05:15:20.916Z,60.51
2019-01-24T05:16:01.515Z,60.7
2019-01-24T05:16:42.133Z,60.61
2019-01-24T05:17:23.479Z,60.61
2019-01-24T05:18:03.355Z,60.22
2019-01-24T05:18:43.965Z,60.32
2019-01-24T05:19:24.575Z,60.51
2019-01-24T05:20:05.181Z,60.61
2019-01-24T05:20:45.807Z,60.51
2019-01-24T05:21:26.441Z,60.61
2019-01-24T05:22:07.041Z,60.51
2019-01-24T05:22:47.645Z,60.7
2019-01-24T05:23:28.263Z,60.61
2019-01-24T05:24:08.895Z,60.51
2019-01-24T05:24:49.505Z,60.7
2019-01-24T05:25:30.118Z,60.7
2019-01-24T05:26:10.755Z,60.7
2019-01-24T05:26:51.375Z,60.51
2019-01-24T05:27:31.979Z,60.51
2019-01-24T05:28:12.579Z,60.22
2019-01-24T05:28:53.215Z,60.51
2019-01-24T05:29:33.831Z,60.7
2019-01-24T05:30:14.443Z,60.51
2019-01-24T05:30:55.047Z,60.7
2019-01-24T05:31:35.667Z,60.51
2019-01-24T05:32:16.279Z,60.61
2019-01-24T05:32:56.901Z,60.61
2019-01-24T05:33:37.514Z,60.61
2019-01-24T05:34:18.146Z,60.51
2019-01-24T05:34:58.763Z,60.7
2019-01-24T05:35:39.377Z,60.7
2019-01-24T05:36:19.983Z,60.51
2019-01-24T05:37:00.595Z,60.7
2019-01-24T05:37:41.214Z,60.51
2019-01-24T05:38:21.871Z,60.51
2019-01-24T05:39:02.509Z,60.51
2019-01-24T05:39:43.103Z,60.61
2019-01-24T05:40:23.713Z,60.7
2019-01-24T05:41:04.325Z,60.8
2019-01-24T05:41:44.943Z,60.22
2019-01-24T05:42:25.552Z,60.51
2019-01-24T05:43:06.164Z,60.61
2019-01-24T05:43:46.799Z,60.8
2019-01-24T05:44:27.403Z,60.41
2019-01-24T05:45:08.005Z,60.7
2019-01-24T05:45:48.621Z,60.51
2019-01-24T05:46:29.225Z,60.41
2019-01-24T05:47:09.839Z,60.22
2019-01-24T05:47:50.450Z,60.41
2019-01-24T05:48:31.069Z,60.03
2019-01-24T05:49:11.660Z,60.51
2019-01-24T05:49:52.263Z,60.13
2019-01-24T05:50:32.889Z,60.13
2019-01-24T05:51:13.489Z,60.8
2019-01-24T05:51:54.101Z,60.03
2019-01-24T05:52:34.720Z,59.94
2019-01-24T05:53:15.326Z,60.22
2019-01-24T05:53:55.926Z,60.03
2019-01-24T05:54:36.528Z,59.94
2019-01-24T05:55:17.151Z,60.51
2019-01-24T05:55:57.765Z,59.94
2019-01-24T05:56:38.377Z,59.94
2019-01-24T05:57:18.991Z,60.13
2019-01-24T05:57:59.600Z,60.22
2019-01-24T05:58:40.197Z,60.13
2019-01-24T05:59:20.843Z,60.03
2019-01-24T06:00:01.486Z,60.22
2019-01-24T06:00:42.192Z,60.03
2019-01-24T06:01:22.767Z,60.22
2019-01-24T06:02:03.511Z,60.13
2019-01-24T06:02:44.163Z,60.22
2019-01-24T06:03:24.797Z,60.32
2019-01-24T06:04:05.417Z,59.94
2019-01-24T06:04:46.073Z,60.32
2019-01-24T06:05:26.675Z,60.22
2019-01-24T06:06:07.289Z,60.22
2019-01-24T06:06:47.906Z,59.94
2019-01-24T06:07:28.522Z,59.94
2019-01-24T06:08:09.138Z,60.61
2019-01-24T06:08:49.737Z,59.94
2019-01-24T06:09:30.335Z,60.51
2019-01-24T06:10:10.957Z,60.51
2019-01-24T06:10:52.187Z,60.13
2019-01-24T06:11:32.685Z,60.61
2019-01-24T06:12:13.394Z,59.94
2019-01-24T06:12:54.146Z,59.94
2019-01-24T06:13:34.755Z,60.13
2019-01-24T06:14:15.390Z,60.13
2019-01-24T06:14:56.009Z,60.22
2019-01-24T06:15:36.651Z,60.13
2019-01-24T06:16:17.273Z,60.22
2019-01-24T06:16:58.263Z,60.22
2019-01-24T06:17:38.889Z,60.22
2019-01-24T06:18:19.813Z,60.03
2019-01-24T06:19:00.257Z,60.22
2019-01-24T06:19:40.991Z,60.13
2019-01-24T06:20:21.673Z,60.13
2019-01-24T06:21:02.395Z,60.22
2019-01-24T06:21:43.231Z,60.22
2019-01-24T06:22:23.863Z,60.22
2019-01-24T06:23:04.483Z,60.32
2019-01-24T06:23:45.105Z,60.22
2019-01-24T06:24:25.726Z,60.32
2019-01-24T06:25:06.519Z,60.13
2019-01-24T06:25:47.139Z,60.22
2019-01-24T06:26:27.891Z,60.22
2019-01-24T06:27:08.484Z,60.03
2019-01-24T06:27:49.265Z,59.94
2019-01-24T06:28:29.913Z,60.13
2019-01-24T06:29:10.591Z,60.03
2019-01-24T06:29:51.299Z,60.32
2019-01-24T06:30:32.056Z,60.22
2019-01-24T06:31:12.835Z,60.41
2019-01-24T06:31:53.558Z,60.32
2019-01-24T06:32:34.177Z,60.32
2019-01-24T06:33:14.794Z,60.22
2019-01-24T06:33:55.393Z,60.22
2019-01-24T06:34:36.026Z,60.32
2019-01-24T06:35:16.631Z,60.22
2019-01-24T06:35:57.252Z,60.22
2019-01-24T06:36:37.855Z,60.22
2019-01-24T06:37:18.650Z,60.13
2019-01-24T06:37:59.432Z,60.22
2019-01-24T06:38:40.056Z,60.22
2019-01-24T06:39:20.759Z,60.41
2019-01-24T06:40:01.371Z,60.13
2019-01-24T06:40:42.089Z,60.03
2019-01-24T06:41:22.792Z,60.32
2019-01-24T06:42:03.499Z,60.13
2019-01-24T06:42:44.331Z,60.22
2019-01-24T06:43:25.005Z,60.22
2019-01-24T06:44:05.756Z,60.32
2019-01-24T06:44:46.363Z,60.03
2019-01-24T06:45:27.071Z,60.13
2019-01-24T06:46:08.140Z,60.41
2019-01-24T06:46:48.745Z,60.41
2019-01-24T06:47:29.419Z,60.22
2019-01-24T06:48:10.025Z,60.13
2019-01-24T06:48:50.637Z,60.13
2019-01-24T06:49:31.306Z,60.22
2019-01-24T06:50:11.943Z,60.22
2019-01-24T06:50:52.547Z,60.22
2019-01-24T06:51:33.171Z,60.32
2019-01-24T06:52:13.790Z,60.32
2019-01-24T06:52:54.411Z,60.32
2019-01-24T06:53:35.443Z,60.22
2019-01-24T06:54:15.996Z,60.41
2019-01-24T06:54:56.826Z,60.41
2019-01-24T06:55:37.484Z,60.22
2019-01-24T06:56:18.241Z,60.32
2019-01-24T06:56:58.814Z,60.13
2019-01-24T06:57:39.504Z,60.32
2019-01-24T06:58:20.157Z,60.32
2019-01-24T06:59:00.772Z,60.03
2019-01-24T06:59:41.427Z,60.13
2019-01-24T07:00:22.279Z,60.22
2019-01-24T07:01:02.916Z,60.13
2019-01-24T07:01:43.538Z,60.41
2019-01-24T07:02:24.154Z,60.22
2019-01-24T07:03:04.767Z,60.22
2019-01-24T07:03:45.381Z,60.22
2019-01-24T07:04:32.936Z,60.32
2019-01-24T07:05:13.536Z,60.32
2019-01-24T07:05:55.394Z,60.22
2019-01-24T07:06:34.781Z,60.32
2019-01-24T07:07:15.389Z,60.32
2019-01-24T07:07:56.002Z,60.13
2019-01-24T07:08:36.731Z,60.32
2019-01-24T07:09:17.344Z,60.22
2019-01-24T07:09:57.966Z,60.13
2019-01-24T07:10:38.592Z,60.32
2019-01-24T07:11:19.350Z,60.51
2019-01-24T07:11:59.975Z,60.41
2019-01-24T07:12:40.582Z,60.41
2019-01-24T07:13:21.292Z,60.03
2019-01-24T07:14:01.988Z,60.13
2019-01-24T07:14:42.779Z,60.32
2019-01-24T07:15:23.599Z,60.13
2019-01-24T07:16:04.196Z,60.03
2019-01-24T07:16:44.792Z,60.13
2019-01-24T07:17:25.402Z,60.13
2019-01-24T07:18:06.479Z,59.84
2019-01-24T07:18:47.072Z,59.84
2019-01-24T07:19:27.666Z,60.03
2019-01-24T07:20:08.318Z,59.94
2019-01-24T07:20:48.976Z,59.75
2019-01-24T07:21:29.578Z,59.65
2019-01-24T07:22:10.194Z,60.03
2019-01-24T07:22:50.790Z,59.75
2019-01-24T07:23:31.658Z,59.84
2019-01-24T07:24:12.284Z,59.84
2019-01-24T07:24:53.056Z,59.84
2019-01-24T07:25:33.586Z,59.84
2019-01-24T07:26:14.256Z,59.94
2019-01-24T07:26:55.062Z,59.84
2019-01-24T07:27:35.950Z,59.84
2019-01-24T07:28:16.542Z,59.55
2019-01-24T07:28:57.293Z,59.75
2019-01-24T07:29:37.975Z,59.75
2019-01-24T07:30:18.589Z,59.75
2019-01-24T07:30:59.287Z,59.55
2019-01-24T07:31:39.860Z,59.36
2019-01-24T07:32:20.496Z,59.75
2019-01-24T07:33:01.098Z,59.84
2019-01-24T07:33:41.708Z,59.84
2019-01-24T07:34:22.319Z,59.65
2019-01-24T07:35:02.938Z,59.84
2019-01-24T07:35:43.531Z,59.55
2019-01-24T07:36:24.266Z,59.84
2019-01-24T07:37:04.901Z,59.55
2019-01-24T07:37:45.526Z,59.65
2019-01-24T07:38:26.164Z,59.84
2019-01-24T07:39:06.860Z,59.55
2019-01-24T07:39:47.467Z,59.65
2019-01-24T07:42:02.860Z,59.65
2019-01-24T07:42:43.552Z,59.65
2019-01-24T07:43:24.148Z,59.84
2019-01-24T07:44:04.826Z,60.03
2019-01-24T07:44:45.424Z,60.03
2019-01-24T07:45:26.052Z,59.84
2019-01-24T07:46:06.680Z,59.94
2019-01-24T07:46:47.286Z,60.03
2019-01-24T07:47:27.906Z,59.84
2019-01-24T07:48:08.527Z,59.84
2019-01-24T07:48:49.132Z,59.94
2019-01-24T07:49:29.751Z,59.36
2019-01-24T07:50:10.374Z,59.36
2019-01-24T07:50:51.104Z,59.27
2019-01-24T07:51:31.698Z,59.36
2019-01-24T07:52:12.498Z,59.65
2019-01-24T07:52:53.141Z,59.45
2019-01-24T07:53:33.786Z,59.27
2019-01-24T07:54:14.390Z,59.84
2019-01-24T07:54:55.002Z,59.27
2019-01-24T07:55:35.642Z,59.36
2019-01-24T07:56:16.391Z,59.36
2019-01-24T07:56:56.988Z,60.13
2019-01-24T07:57:37.684Z,59.36
2019-01-24T07:58:18.328Z,59.36
2019-01-24T07:58:59.004Z,59.17
2019-01-24T07:59:39.688Z,58.88
2019-01-24T08:00:20.321Z,59.17
2019-01-24T08:01:00.936Z,59.45
2019-01-24T08:01:41.584Z,59.36
2019-01-24T08:02:22.251Z,59.36
2019-01-24T08:03:02.850Z,59.45
2019-01-24T08:03:43.464Z,59.45
2019-01-24T08:04:24.072Z,59.08
2019-01-24T08:05:04.700Z,59.65
2019-01-24T08:05:45.389Z,59.55
2019-01-24T08:06:26.004Z,59.27
2019-01-24T08:07:06.629Z,59.27
2019-01-24T08:07:47.394Z,59.17
2019-01-24T08:08:28.020Z,59.36
2019-01-24T08:09:08.662Z,58.88
2019-01-24T08:09:49.272Z,59.27
2019-01-24T08:10:30.143Z,58.88
2019-01-24T08:11:10.642Z,58.98
2019-01-24T08:11:51.226Z,58.79
2019-01-24T08:12:31.838Z,58.98
2019-01-24T08:13:12.478Z,58.69
2019-01-24T08:13:53.092Z,59.27
2019-01-24T08:14:33.702Z,58.88
2019-01-24T08:15:14.334Z,58.88
2019-01-24T08:15:54.983Z,59.17
2019-01-24T08:16:35.612Z,58.98
2019-01-24T08:17:16.251Z,59.27
2019-01-24T08:17:56.944Z,59.27
2019-01-24T08:18:37.560Z,59.08
2019-01-24T08:19:18.182Z,58.98
2019-01-24T08:19:58.780Z,59.17
2019-01-24T08:20:39.385Z,59.17
2019-01-24T08:21:20.023Z,59.27
2019-01-24T08:22:00.636Z,58.98
2019-01-24T08:22:41.244Z,59.27
2019-01-24T08:23:21.866Z,59.27
2019-01-24T08:24:02.576Z,58.88
2019-01-24T08:24:43.244Z,59.17
2019-01-24T08:25:23.838Z,58.79
2019-01-24T08:26:04.464Z,59.36
2019-01-24T08:26:45.066Z,59.17
2019-01-24T08:27:26.068Z,58.98
2019-01-24T08:28:06.539Z,59.36
2019-01-24T08:28:47.184Z,58.98
2019-01-24T08:29:27.850Z,59.17
2019-01-24T08:30:08.462Z,59.17
2019-01-24T08:30:49.072Z,58.88
2019-01-24T08:31:29.688Z,59.08
2019-01-24T08:32:10.294Z,59.08
2019-01-24T08:32:50.930Z,59.27
2019-01-24T08:33:31.546Z,59.17
2019-01-24T08:34:12.177Z,59.08
2019-01-24T08:34:52.863Z,59.08
2019-01-24T08:35:33.495Z,59.08
2019-01-24T08:36:15.605Z,58.88
2019-01-24T08:36:54.912Z,58.88
2019-01-24T08:37:35.530Z,58.5
2019-01-24T08:38:16.160Z,58.88
2019-01-24T08:38:56.764Z,58.88
2019-01-24T08:39:37.372Z,58.79
2019-01-24T08:40:18.032Z,58.88
2019-01-24T08:40:58.678Z,58.88
2019-01-24T08:41:39.290Z,58.88
2019-01-24T08:42:19.896Z,58.69
2019-01-24T08:43:00.524Z,58.88
2019-01-24T08:43:41.146Z,58.88
2019-01-24T08:44:21.778Z,58.88
2019-01-24T08:45:02.386Z,58.88
2019-01-24T08:45:43.014Z,58.79
2019-01-24T08:46:23.610Z,58.59
2019-01-24T08:47:04.230Z,58.79
2019-01-24T08:47:44.828Z,58.69